Time;durP1;ratioP1;P1;durP2;ratioP2;P2;SDS_P1;SDS_P2;PMS_P1;PMS_P2;Temp;Humidity;BMP_temperature;BMP_pressure;BME280_temperature;BME280_humidity;BME280_pressure;Samples;Min_cycle;Max_cycle;Signal;HPM_P1;HPM_P2
2022/07/28 08:16:04;;;;;;;5.50;2.00;;;;;;;;;;107148;1286;568701;-41
2022/07/28 08:18:36;;;;;;;4.40;1.70;;;;;;;;;;108936;1262;34807;-40
2022/07/28 08:21:08;;;;;;;4.60;1.80;;;;;;;;;;109007;1263;33456;-45
2022/07/28 08:23:41;;;;;;;4.40;1.70;;;;;;;;;;108970;1263;34610;-44
2022/07/28 08:26:13;;;;;;;5.10;1.90;;;;;;;;;;108957;1269;34341;-46
2022/07/28 08:28:44;;;;;;;4.20;1.70;;;;;;;;;;108865;1266;197333;-45
2022/07/28 08:31:20;;;;;;;5.00;2.00;;;;;;;;;;109421;1266;34379;-46
2022/07/28 08:33:53;;;;;;;4.90;1.90;;;;;;;;;;109420;1260;34219;-45
2022/07/28 08:36:26;;;;;;;5.70;1.70;;;;;;;;;;109386;1260;34209;-47
2022/07/28 08:38:58;;;;;;;5.40;1.80;;;;;;;;;;109426;1266;33433;-46
2022/07/28 08:41:44;;;;;;;5.60;1.70;;;;;;;;;;109392;1266;34993;-44
2022/07/28 08:44:21;;;;;;;4.10;1.70;;;;;;;;;;109431;1259;34417;-42
2022/07/28 08:46:53;;;;;;;5.50;2.00;;;;;;;;;;109434;1259;35045;-45
2022/07/28 08:49:27;;;;;;;5.80;2.10;;;;;;;;;;109407;1260;34144;-43
2022/07/28 08:52:00;;;;;;;4.10;2.00;;;;;;;;;;109405;1260;34902;-48
2022/07/28 08:54:33;;;;;;;7.30;2.00;;;;;;;;;;110168;1259;34985;-43
2022/07/28 08:57:05;;;;;;;3.80;1.80;;;;;;;;;;110190;1253;33666;-47
2022/07/28 08:59:37;;;;;;;5.90;1.90;;;;;;;;;;110142;1253;35846;-42
2022/07/28 09:02:12;;;;;;;4.60;1.60;;;;;;;;;;110176;1253;34700;-50
2022/07/28 09:04:45;;;;;;;4.10;1.60;;;;;;;;;;110161;1259;33313;-45
2022/07/28 09:07:18;;;;;;;5.00;1.70;;;;;;;;;;110181;1260;33726;-47
2022/07/28 09:09:52;;;;;;;4.10;1.80;;;;;;;;;;110184;1253;34946;-43
2022/07/28 09:12:24;;;;;;;4.20;1.60;;;;;;;;;;110161;1260;34481;-49
2022/07/28 09:14:56;;;;;;;4.40;1.90;;;;;;;;;;110144;1259;34882;-47
2022/07/28 09:17:28;;;;;;;4.50;1.60;;;;;;;;;;110111;1260;34584;-42
2022/07/28 09:20:00;;;;;;;3.90;1.60;;;;;;;;;;110170;1259;34482;-45
2022/07/28 09:22:33;;;;;;;4.00;1.50;;;;;;;;;;110170;1253;34995;-45
2022/07/28 09:25:05;;;;;;;;;;;;;;;;;;110196;1253;34990;-42
2022/07/28 09:27:46;;;;;;;4.50;1.80;;;;;;;;;;110202;1253;32793;-45
2022/07/28 09:30:28;;;;;;;4.30;1.60;;;;;;;;;;110168;1259;34929;-44
2022/07/28 09:33:26;;;;;;;4.20;1.40;;;;;;;;;;110178;1259;34630;-42
2022/07/28 09:35:59;;;;;;;4.20;1.40;;;;;;;;;;110164;1259;34399;-46
2022/07/28 09:38:41;;;;;;;3.70;1.40;;;;;;;;;;110169;1253;34901;-47
2022/07/28 09:41:13;;;;;;;3.50;1.20;;;;;;;;;;110206;1260;34245;-47
2022/07/28 09:43:46;;;;;;;4.30;1.50;;;;;;;;;;110207;1260;33086;-48
2022/07/28 09:46:21;;;;;;;4.50;1.50;;;;;;;;;;110199;1259;33798;-46
2022/07/28 09:49:00;;;;;;;2.90;1.10;;;;;;;;;;110184;1253;34092;-47
2022/07/28 09:51:34;;;;;;;3.90;1.20;;;;;;;;;;110216;1259;32952;-44
2022/07/28 09:54:16;;;;;;;3.60;1.40;;;;;;;;;;110176;1253;34245;-45
2022/07/28 09:56:48;;;;;;;4.70;1.30;;;;;;;;;;110203;1259;34759;-48
2022/07/28 09:59:20;;;;;;;4.20;1.00;;;;;;;;;;110158;1260;34856;-44
2022/07/28 10:02:01;;;;;;;2.90;1.20;;;;;;;;;;110143;1259;32990;-42
2022/07/28 10:04:36;;;;;;;3.60;1.20;;;;;;;;;;110129;1251;34684;-43
2022/07/28 10:07:12;;;;;;;3.70;1.30;;;;;;;;;;110159;1252;35254;-42
2022/07/28 10:09:55;;;;;;;3.50;1.10;;;;;;;;;;110114;1259;34966;-40
2022/07/28 10:12:29;;;;;;;3.40;1.10;;;;;;;;;;110128;1259;34415;-43
2022/07/28 10:18:01;;;;;;;5.00;1.30;;;;;;;;;;110141;1259;34556;-43
2022/07/28 10:20:34;;;;;;;5.20;1.30;;;;;;;;;;110165;1253;34585;-44
2022/07/28 10:23:10;;;;;;;3.20;1.10;;;;;;;;;;110133;1253;36577;-45
2022/07/28 10:25:44;;;;;;;2.50;1.00;;;;;;;;;;110124;1260;34357;-44
2022/07/28 10:28:18;;;;;;;2.50;1.10;;;;;;;;;;110174;1252;34785;-43
2022/07/28 10:30:51;;;;;;;2.80;1.10;;;;;;;;;;110060;1260;34853;-42
2022/07/28 10:33:21;;;;;;;;;;;;;;;;;;110170;1259;34046;-45
2022/07/28 10:35:53;;;;;;;2.90;1.20;;;;;;;;;;110124;1259;34284;-43
2022/07/28 10:38:28;;;;;;;3.50;1.30;;;;;;;;;;110148;1259;35599;-48
2022/07/28 10:41:03;;;;;;;3.80;1.10;;;;;;;;;;110131;1253;34811;-52
2022/07/28 10:43:36;;;;;;;4.10;1.30;;;;;;;;;;110166;1253;34764;-45
2022/07/28 10:46:08;;;;;;;3.40;1.00;;;;;;;;;;110187;1253;32923;-41
2022/07/28 10:48:41;;;;;;;4.00;1.20;;;;;;;;;;110165;1259;34103;-42
2022/07/28 10:51:13;;;;;;;3.20;0.80;;;;;;;;;;110163;1253;33944;-41
2022/07/28 10:53:52;;;;;;;2.80;1.10;;;;;;;;;;110164;1253;34533;-44
2022/07/28 10:56:30;;;;;;;3.70;1.40;;;;;;;;;;110237;1251;33091;-45
2022/07/28 10:59:10;;;;;;;3.00;1.00;;;;;;;;;;110246;1251;34328;-44
2022/07/28 11:01:43;;;;;;;3.20;1.00;;;;;;;;;;110112;1260;34868;-43
2022/07/28 11:04:51;;;;;;;2.80;0.90;;;;;;;;;;110272;1259;33198;-53
2022/07/28 11:07:23;;;;;;;2.60;1.00;;;;;;;;;;110234;1250;33133;-41
2022/07/28 11:09:54;;;;;;;3.30;1.10;;;;;;;;;;110220;1259;34519;-47
2022/07/28 11:12:49;;;;;;;2.90;1.00;;;;;;;;;;110225;1258;33561;-47
2022/07/28 11:15:37;;;;;;;3.40;1.10;;;;;;;;;;110246;1258;34085;-44
2022/07/28 11:18:11;;;;;;;3.50;1.00;;;;;;;;;;110236;1259;33326;-45
2022/07/28 11:21:17;;;;;;;2.20;0.80;;;;;;;;;;110227;1251;34927;-45
2022/07/28 11:23:59;;;;;;;2.10;0.90;;;;;;;;;;110081;1258;35074;-40
2022/07/28 11:26:38;;;;;;;2.70;0.70;;;;;;;;;;110257;1258;34789;-50
2022/07/28 11:29:21;;;;;;;1.90;0.80;;;;;;;;;;110221;1258;34542;-48
2022/07/28 11:32:04;;;;;;;2.90;0.80;;;;;;;;;;110237;1258;33206;-43
2022/07/28 11:35:10;;;;;;;2.60;0.70;;;;;;;;;;110236;1252;34805;-49
2022/07/28 11:38:12;;;;;;;2.40;0.70;;;;;;;;;;110233;1253;34574;-42
2022/07/28 11:40:47;;;;;;;1.80;0.70;;;;;;;;;;110210;1259;34843;-46
2022/07/28 11:43:39;;;;;;;2.10;0.90;;;;;;;;;;110240;1251;34853;-45
2022/07/28 11:46:38;;;;;;;2.30;0.80;;;;;;;;;;110256;1259;34904;-42
2022/07/28 11:49:26;;;;;;;2.30;0.90;;;;;;;;;;110208;1258;33153;-50
2022/07/28 11:52:20;;;;;;;2.80;0.80;;;;;;;;;;110185;1251;33255;-44
2022/07/28 11:54:57;;;;;;;2.30;0.70;;;;;;;;;;110244;1259;35289;-44
2022/07/28 11:57:29;;;;;;;2.00;0.70;;;;;;;;;;110226;1259;34889;-49
2022/07/28 12:00:03;;;;;;;4.00;1.00;;;;;;;;;;110211;1259;34605;-41
2022/07/28 12:02:36;;;;;;;2.00;0.70;;;;;;;;;;110457;1247;34963;-41
2022/07/28 12:05:13;;;;;;;2.90;0.90;;;;;;;;;;110483;1247;33227;-51
2022/07/28 12:07:51;;;;;;;1.60;0.70;;;;;;;;;;110492;1247;33144;-54
2022/07/28 12:10:37;;;;;;;2.60;0.70;;;;;;;;;;110466;1247;34943;-49
2022/07/28 12:13:09;;;;;;;1.80;0.70;;;;;;;;;;110444;1255;34171;-42
2022/07/28 12:15:41;;;;;;;2.50;0.70;;;;;;;;;;110467;1251;34992;-46
2022/07/28 12:18:14;;;;;;;2.90;0.80;;;;;;;;;;110460;1256;34491;-52
2022/07/28 12:20:51;;;;;;;;;;;;;;;;;;110448;1255;34550;-49
2022/07/28 12:23:32;;;;;;;2.50;0.80;;;;;;;;;;110452;1255;35079;-44
2022/07/28 12:26:05;;;;;;;1.40;0.70;;;;;;;;;;110467;1255;34875;-47
2022/07/28 12:28:36;;;;;;;2.70;0.80;;;;;;;;;;110463;1248;33830;-41
2022/07/28 12:31:15;;;;;;;1.20;0.70;;;;;;;;;;110466;1250;34537;-46
2022/07/28 12:33:47;;;;;;;3.90;0.90;;;;;;;;;;110462;1255;34319;-50
2022/07/28 12:36:22;;;;;;;2.10;0.70;;;;;;;;;;110473;1255;33697;-45
2022/07/28 12:38:55;;;;;;;1.60;0.90;;;;;;;;;;110444;1255;34636;-47
2022/07/28 12:41:32;;;;;;;2.30;0.70;;;;;;;;;;110448;1250;34779;-45
2022/07/28 12:44:06;;;;;;;2.40;0.80;;;;;;;;;;110490;1255;34843;-46
2022/07/28 12:46:38;;;;;;;1.70;0.70;;;;;;;;;;110477;1248;34626;-46
2022/07/28 12:49:21;;;;;;;2.60;0.90;;;;;;;;;;110462;1255;34739;-49
2022/07/28 12:51:53;;;;;;;2.30;0.80;;;;;;;;;;110474;1255;33845;-43
2022/07/28 12:54:37;;;;;;;2.50;0.70;;;;;;;;;;110452;1247;34917;-41
2022/07/28 12:57:09;;;;;;;2.80;0.70;;;;;;;;;;110472;1255;35098;-43
2022/07/28 12:59:41;;;;;;;2.50;0.70;;;;;;;;;;110473;1256;33108;-48
2022/07/28 13:02:13;;;;;;;2.20;0.80;;;;;;;;;;110470;1247;33901;-47
2022/07/28 13:04:47;;;;;;;1.90;0.60;;;;;;;;;;110466;1254;34689;-46
2022/07/28 13:07:29;;;;;;;2.40;0.70;;;;;;;;;;110508;1247;34756;-43
2022/07/28 13:10:09;;;;;;;2.40;0.90;;;;;;;;;;110479;1255;34801;-44
2022/07/28 13:12:42;;;;;;;2.00;0.70;;;;;;;;;;110446;1247;35578;-42
2022/07/28 13:15:19;;;;;;;1.90;0.80;;;;;;;;;;110507;1255;34221;-46
2022/07/28 13:17:55;;;;;;;1.90;0.90;;;;;;;;;;110452;1247;33617;-46
2022/07/28 13:20:28;;;;;;;2.70;1.00;;;;;;;;;;110481;1247;35150;-43
2022/07/28 13:23:00;;;;;;;2.60;1.00;;;;;;;;;;110313;1255;35062;-47
2022/07/28 13:25:33;;;;;;;4.00;1.10;;;;;;;;;;110285;1247;33901;-47
2022/07/28 13:28:06;;;;;;;4.90;1.40;;;;;;;;;;110393;1255;32854;-46
2022/07/28 13:30:38;;;;;;;4.30;1.30;;;;;;;;;;110297;1247;34357;-44
2022/07/28 13:33:11;;;;;;;4.40;1.20;;;;;;;;;;110287;1247;31888;-45
2022/07/28 13:35:43;;;;;;;4.30;1.30;;;;;;;;;;110253;1255;33321;-47
2022/07/28 13:38:16;;;;;;;4.50;1.20;;;;;;;;;;110267;1247;35986;-47
2022/07/28 13:40:49;;;;;;;3.90;1.50;;;;;;;;;;110278;1255;34926;-47
2022/07/28 13:43:21;;;;;;;5.10;1.80;;;;;;;;;;110201;1247;34095;-46
2022/07/28 13:45:54;;;;;;;4.10;2.00;;;;;;;;;;110227;1257;34392;-47
2022/07/28 13:48:27;;;;;;;3.50;1.60;;;;;;;;;;110376;1255;35000;-45
2022/07/28 13:51:00;;;;;;;4.50;1.60;;;;;;;;;;110285;1247;33529;-46
2022/07/28 13:53:35;;;;;;;4.50;1.40;;;;;;;;;;110282;1247;33618;-46
2022/07/28 13:56:12;;;;;;;3.90;1.60;;;;;;;;;;110243;1247;33029;-46
2022/07/28 13:58:44;;;;;;;5.30;1.60;;;;;;;;;;110347;1256;33850;-46
2022/07/28 14:01:35;;;;;;;4.60;1.60;;;;;;;;;;110222;1256;34353;-45
2022/07/28 14:04:08;;;;;;;4.50;1.70;;;;;;;;;;110228;1255;34699;-46
2022/07/28 14:06:43;;;;;;;4.30;1.40;;;;;;;;;;110292;1255;33079;-43
2022/07/28 14:09:18;;;;;;;5.90;1.70;;;;;;;;;;110245;1255;35054;-46
2022/07/28 14:11:53;;;;;;;5.80;1.70;;;;;;;;;;110240;1249;33443;-47
2022/07/28 14:14:25;;;;;;;5.00;1.60;;;;;;;;;;110264;1247;32975;-46
2022/07/28 14:16:58;;;;;;;4.70;1.50;;;;;;;;;;110281;1255;35026;-46
2022/07/28 14:19:32;;;;;;;4.80;1.50;;;;;;;;;;110373;1255;35131;-47
2022/07/28 14:22:05;;;;;;;4.40;1.40;;;;;;;;;;110257;1255;34853;-47
2022/07/28 14:24:37;;;;;;;4.50;1.40;;;;;;;;;;110265;1248;35000;-47
2022/07/28 14:27:10;;;;;;;4.60;1.20;;;;;;;;;;110251;1247;35021;-46
2022/07/28 14:29:42;;;;;;;5.20;1.50;;;;;;;;;;110271;1255;34998;-46
2022/07/28 14:32:15;;;;;;;3.30;1.40;;;;;;;;;;110375;1255;32570;-47
2022/07/28 14:34:47;;;;;;;5.40;1.40;;;;;;;;;;110209;1256;35293;-47
2022/07/28 14:37:19;;;;;;;3.00;1.10;;;;;;;;;;110233;1255;35337;-47
2022/07/28 14:39:52;;;;;;;4.40;1.20;;;;;;;;;;110243;1247;32280;-47
2022/07/28 14:42:25;;;;;;;3.30;1.30;;;;;;;;;;110234;1247;34382;-46
2022/07/28 14:45:05;;;;;;;3.10;1.30;;;;;;;;;;110244;1255;33846;-43
2022/07/28 14:47:39;;;;;;;3.60;1.40;;;;;;;;;;110245;1247;34261;-46
2022/07/28 14:50:12;;;;;;;3.00;1.30;;;;;;;;;;110147;1250;33246;-47
2022/07/28 14:52:45;;;;;;;3.80;1.40;;;;;;;;;;110172;1247;33892;-47
2022/07/28 14:55:18;;;;;;;4.30;1.40;;;;;;;;;;110195;1250;33873;-47
2022/07/28 14:57:49;;;;;;;3.90;1.40;;;;;;;;;;110148;1255;34091;-47
2022/07/28 15:00:23;;;;;;;4.50;1.60;;;;;;;;;;110154;1255;34308;-46
2022/07/28 15:02:55;;;;;;;3.40;1.50;;;;;;;;;;110296;1247;31641;-46
2022/07/28 15:05:30;;;;;;;3.20;1.40;;;;;;;;;;110180;1250;33831;-46
2022/07/28 15:08:07;;;;;;;3.50;1.50;;;;;;;;;;110218;1248;34416;-47
2022/07/28 15:11:09;;;;;;;4.70;1.20;;;;;;;;;;110207;1247;34133;-47
2022/07/28 15:13:42;;;;;;;4.30;1.40;;;;;;;;;;110222;1247;33634;-47
2022/07/28 15:16:15;;;;;;;3.20;1.50;;;;;;;;;;110252;1247;33666;-44
2022/07/28 15:18:52;;;;;;;3.30;1.60;;;;;;;;;;110221;1251;33057;-47
2022/07/28 15:21:24;;;;;;;4.20;1.50;;;;;;;;;;110238;1250;33228;-47
2022/07/28 15:23:56;;;;;;;5.60;1.50;;;;;;;;;;110252;1248;33704;-45
2022/07/28 15:26:29;;;;;;;4.80;1.80;;;;;;;;;;110244;1255;34211;-46
2022/07/28 15:29:01;;;;;;;5.60;1.70;;;;;;;;;;110271;1255;33964;-47
2022/07/28 15:31:43;;;;;;;3.70;1.40;;;;;;;;;;110225;1257;34770;-47
2022/07/28 15:34:15;;;;;;;3.50;1.40;;;;;;;;;;110244;1255;34895;-46
2022/07/28 15:36:48;;;;;;;3.40;1.60;;;;;;;;;;110209;1255;33262;-47
2022/07/28 15:39:22;;;;;;;3.90;1.50;;;;;;;;;;110206;1255;34389;-47
2022/07/28 15:41:58;;;;;;;4.80;1.80;;;;;;;;;;110131;1256;32454;-46
2022/07/28 15:44:31;;;;;;;4.00;1.30;;;;;;;;;;110148;1250;34456;-44
2022/07/28 15:47:04;;;;;;;5.40;1.90;;;;;;;;;;110123;1256;31653;-47
2022/07/28 15:49:36;;;;;;;4.20;1.50;;;;;;;;;;110103;1256;34832;-47
2022/07/28 15:52:09;;;;;;;5.80;1.90;;;;;;;;;;110117;1250;34177;-47
2022/07/28 15:54:41;;;;;;;5.00;1.60;;;;;;;;;;110088;1250;34895;-47
2022/07/28 15:57:21;;;;;;;5.00;1.50;;;;;;;;;;110065;1256;33311;-47
2022/07/28 15:59:54;;;;;;;3.50;1.50;;;;;;;;;;110124;1256;34971;-47
2022/07/28 16:02:30;;;;;;;3.70;1.40;;;;;;;;;;110147;1250;34328;-47
2022/07/28 16:05:02;;;;;;;2.90;1.50;;;;;;;;;;110136;1256;35025;-45
2022/07/28 16:07:34;;;;;;;4.40;1.90;;;;;;;;;;110097;1256;34809;-47
2022/07/28 16:10:11;;;;;;;5.00;1.70;;;;;;;;;;110051;1250;34585;-47
2022/07/28 16:12:43;;;;;;;2.70;1.30;;;;;;;;;;110127;1250;34356;-46
2022/07/28 16:15:15;;;;;;;3.40;1.40;;;;;;;;;;110075;1256;32880;-44
2022/07/28 16:17:48;;;;;;;3.50;1.60;;;;;;;;;;110104;1256;33226;-45
2022/07/28 16:20:24;;;;;;;4.30;1.80;;;;;;;;;;110092;1256;33605;-45
2022/07/28 16:22:57;;;;;;;4.30;1.60;;;;;;;;;;110141;1257;34437;-44
2022/07/28 16:25:31;;;;;;;3.80;1.60;;;;;;;;;;110093;1256;33335;-47
2022/07/28 16:28:06;;;;;;;3.50;1.80;;;;;;;;;;110066;1249;34991;-46
2022/07/28 16:30:39;;;;;;;4.80;2.10;;;;;;;;;;109915;1256;318768;-47
2022/07/28 16:33:11;;;;;;;3.90;1.70;;;;;;;;;;110182;1250;33977;-40
2022/07/28 16:35:43;;;;;;;3.40;1.50;;;;;;;;;;110327;1250;33150;-43
2022/07/28 16:38:15;;;;;;;3.80;1.60;;;;;;;;;;110348;1256;34715;-41
2022/07/28 16:40:46;;;;;;;6.00;2.20;;;;;;;;;;110311;1256;34687;-42
2022/07/28 16:43:18;;;;;;;4.20;1.60;;;;;;;;;;110334;1256;33035;-38
2022/07/28 16:45:50;;;;;;;3.60;1.70;;;;;;;;;;110344;1256;34960;-39
2022/07/28 16:48:22;;;;;;;3.70;1.70;;;;;;;;;;110356;1256;34847;-41
2022/07/28 16:50:55;;;;;;;3.50;1.60;;;;;;;;;;110306;1249;35056;-43
2022/07/28 16:53:27;;;;;;;5.70;2.00;;;;;;;;;;110353;1256;34466;-42
2022/07/28 16:55:59;;;;;;;4.80;2.50;;;;;;;;;;110321;1256;35084;-42
2022/07/28 16:58:31;;;;;;;4.90;2.70;;;;;;;;;;110339;1256;35063;-42
2022/07/28 17:01:03;;;;;;;6.00;3.10;;;;;;;;;;110333;1250;35055;-47
2022/07/28 17:03:35;;;;;;;5.50;3.40;;;;;;;;;;110311;1256;34687;-41
2022/07/28 17:06:08;;;;;;;6.40;3.40;;;;;;;;;;110306;1251;34930;-41
2022/07/28 17:08:39;;;;;;;4.40;2.90;;;;;;;;;;110342;1249;35300;-46
2022/07/28 17:11:11;;;;;;;4.40;2.40;;;;;;;;;;110333;1250;35100;-39
2022/07/28 17:13:44;;;;;;;5.10;2.80;;;;;;;;;;110342;1256;34942;-45
2022/07/28 17:16:16;;;;;;;6.30;2.20;;;;;;;;;;110321;1250;35205;-49
2022/07/28 17:18:48;;;;;;;6.20;2.50;;;;;;;;;;110333;1256;35309;-46
2022/07/28 17:21:20;;;;;;;3.90;2.40;;;;;;;;;;110284;1256;35024;-40
2022/07/28 17:23:52;;;;;;;4.60;2.00;;;;;;;;;;110320;1250;34971;-38
2022/07/28 17:26:28;;;;;;;4.30;2.30;;;;;;;;;;110304;1256;35508;-41
2022/07/28 17:29:01;;;;;;;5.50;2.30;;;;;;;;;;110306;1251;35064;-39
2022/07/28 17:31:34;;;;;;;4.10;2.10;;;;;;;;;;110320;1256;35385;-39
2022/07/28 17:34:06;;;;;;;4.80;2.30;;;;;;;;;;110301;1256;34987;-38
2022/07/28 17:36:38;;;;;;;4.60;2.10;;;;;;;;;;110346;1250;35538;-42
2022/07/28 17:39:11;;;;;;;5.20;2.10;;;;;;;;;;110301;1250;34622;-40
2022/07/28 17:41:46;;;;;;;4.70;2.00;;;;;;;;;;110170;1256;34999;-37
2022/07/28 17:44:18;;;;;;;3.80;2.10;;;;;;;;;;110280;1256;33645;-37
2022/07/28 17:46:50;;;;;;;4.70;2.20;;;;;;;;;;110252;1256;34079;-41
2022/07/28 17:49:22;;;;;;;3.70;1.80;;;;;;;;;;110329;1251;34658;-40
2022/07/28 17:51:54;;;;;;;3.80;2.30;;;;;;;;;;110331;1256;34863;-41
2022/07/28 17:55:32;;;;;;;4.00;1.80;;;;;;;;;;110346;1256;35022;-41
2022/07/28 17:57:19;;;;;;;5.00;2.10;;;;;;;;;;110334;1256;34772;-38
2022/07/28 17:59:51;;;;;;;5.30;2.00;;;;;;;;;;110342;1256;34853;-39
2022/07/28 18:02:23;;;;;;;5.20;2.40;;;;;;;;;;110354;1257;33284;-39
2022/07/28 18:04:55;;;;;;;4.90;2.20;;;;;;;;;;110297;1250;35061;-41
2022/07/28 18:07:27;;;;;;;4.60;2.10;;;;;;;;;;110338;1256;34756;-41
2022/07/28 18:09:58;;;;;;;3.90;1.90;;;;;;;;;;110328;1249;35997;-42
2022/07/28 18:12:30;;;;;;;3.60;2.10;;;;;;;;;;110264;1256;31733;-39
2022/07/28 18:15:02;;;;;;;6.20;2.80;;;;;;;;;;110160;1256;34575;-39
2022/07/28 18:17:34;;;;;;;3.60;1.90;;;;;;;;;;110158;1256;34082;-38
2022/07/28 18:20:08;;;;;;;4.90;2.20;;;;;;;;;;110168;1250;35048;-38
2022/07/28 18:22:40;;;;;;;3.50;1.70;;;;;;;;;;110247;1256;34495;-38
2022/07/28 18:25:12;;;;;;;5.10;1.70;;;;;;;;;;110172;1256;33845;-39
2022/07/28 18:27:46;;;;;;;3.60;1.80;;;;;;;;;;110254;1256;33009;-39
2022/07/28 18:30:21;;;;;;;4.40;1.70;;;;;;;;;;110277;1250;34595;-40
2022/07/28 18:32:54;;;;;;;4.20;2.00;;;;;;;;;;110312;1256;34432;-38
2022/07/28 18:35:27;;;;;;;3.70;1.90;;;;;;;;;;110329;1254;35314;-38
2022/07/28 18:37:59;;;;;;;5.60;2.00;;;;;;;;;;110356;1256;34709;-40
2022/07/28 18:40:32;;;;;;;4.00;2.10;;;;;;;;;;110350;1250;34941;-40
2022/07/28 18:43:04;;;;;;;5.70;1.70;;;;;;;;;;110362;1249;34639;-40
2022/07/28 18:45:36;;;;;;;3.70;2.10;;;;;;;;;;110334;1256;34008;-40
2022/07/28 18:48:10;;;;;;;3.50;1.70;;;;;;;;;;110325;1256;34764;-42
2022/07/28 18:50:42;;;;;;;3.60;1.90;;;;;;;;;;110325;1256;33082;-39
2022/07/28 18:53:14;;;;;;;3.50;1.70;;;;;;;;;;110320;1256;34574;-39
2022/07/28 18:55:46;;;;;;;4.20;1.80;;;;;;;;;;110302;1256;34756;-39
2022/07/28 18:58:18;;;;;;;3.90;1.80;;;;;;;;;;110318;1249;34734;-39
2022/07/28 19:00:50;;;;;;;5.00;1.90;;;;;;;;;;110319;1256;34783;-39
2022/07/28 19:03:22;;;;;;;3.20;1.60;;;;;;;;;;110331;1256;33934;-40
2022/07/28 19:05:54;;;;;;;3.30;1.60;;;;;;;;;;110375;1257;34869;-40
2022/07/28 19:08:26;;;;;;;4.40;1.70;;;;;;;;;;110372;1250;35096;-40
2022/07/28 19:10:58;;;;;;;4.90;1.70;;;;;;;;;;110330;1256;34971;-42
2022/07/28 19:13:30;;;;;;;3.00;1.50;;;;;;;;;;110327;1256;34700;-41
2022/07/28 19:16:02;;;;;;;3.80;1.80;;;;;;;;;;110348;1256;35058;-40
2022/07/28 19:18:34;;;;;;;4.50;1.80;;;;;;;;;;110330;1256;33916;-41
2022/07/28 19:21:07;;;;;;;4.10;1.90;;;;;;;;;;110354;1251;33862;-39
2022/07/28 19:23:39;;;;;;;4.60;1.50;;;;;;;;;;110354;1257;34456;-40
2022/07/28 19:26:11;;;;;;;4.70;1.80;;;;;;;;;;110318;1257;34795;-42
2022/07/28 19:28:43;;;;;;;4.40;1.80;;;;;;;;;;110318;1257;33923;-41
2022/07/28 19:31:15;;;;;;;3.20;1.60;;;;;;;;;;110342;1256;34647;-41
2022/07/28 19:33:47;;;;;;;2.90;1.80;;;;;;;;;;110323;1257;34619;-39
2022/07/28 19:36:21;;;;;;;4.50;1.80;;;;;;;;;;110305;1257;33361;-39
2022/07/28 19:38:56;;;;;;;4.80;2.00;;;;;;;;;;110336;1256;34547;-39
2022/07/28 19:41:30;;;;;;;3.50;1.70;;;;;;;;;;110288;1257;34739;-37
2022/07/28 19:44:02;;;;;;;4.40;1.90;;;;;;;;;;110300;1257;33137;-38
2022/07/28 19:46:34;;;;;;;4.30;1.60;;;;;;;;;;110309;1256;34889;-39
2022/07/28 19:49:06;;;;;;;3.50;1.70;;;;;;;;;;110342;1256;32999;-39
2022/07/28 19:51:39;;;;;;;4.80;1.70;;;;;;;;;;110346;1257;34608;-41
2022/07/28 19:54:13;;;;;;;4.90;2.20;;;;;;;;;;110371;1257;34409;-40
2022/07/28 19:56:45;;;;;;;5.10;2.70;;;;;;;;;;110382;1251;34755;-39
2022/07/28 19:59:17;;;;;;;5.40;2.50;;;;;;;;;;110362;1257;34784;-44
2022/07/28 20:01:50;;;;;;;4.20;2.00;;;;;;;;;;110361;1251;34737;-44
2022/07/28 20:04:22;;;;;;;3.80;2.00;;;;;;;;;;110369;1257;33257;-47
2022/07/28 20:06:54;;;;;;;4.90;2.30;;;;;;;;;;110346;1256;34474;-44
2022/07/28 20:09:27;;;;;;;3.90;2.10;;;;;;;;;;110329;1253;33169;-40
2022/07/28 20:11:59;;;;;;;4.40;1.90;;;;;;;;;;110362;1257;32891;-43
2022/07/28 20:14:31;;;;;;;4.10;2.10;;;;;;;;;;110339;1251;34446;-43
2022/07/28 20:17:03;;;;;;;3.40;1.90;;;;;;;;;;110346;1256;34821;-41
2022/07/28 20:19:35;;;;;;;4.90;2.30;;;;;;;;;;110320;1256;32938;-40
2022/07/28 20:22:07;;;;;;;5.00;2.20;;;;;;;;;;110324;1256;32287;-39
2022/07/28 20:24:39;;;;;;;3.70;1.70;;;;;;;;;;110335;1251;34533;-39
2022/07/28 20:27:12;;;;;;;5.40;2.00;;;;;;;;;;110358;1250;33915;-39
2022/07/28 20:29:43;;;;;;;4.50;1.90;;;;;;;;;;110329;1257;34795;-38
2022/07/28 20:32:15;;;;;;;4.00;2.10;;;;;;;;;;110336;1256;34870;-44
2022/07/28 20:34:47;;;;;;;4.60;1.90;;;;;;;;;;110314;1251;34872;-40
2022/07/28 20:37:20;;;;;;;4.70;2.00;;;;;;;;;;110320;1257;35072;-43
2022/07/28 20:39:52;;;;;;;4.70;2.10;;;;;;;;;;110283;1256;33043;-44
2022/07/28 20:42:24;;;;;;;3.80;1.80;;;;;;;;;;110311;1256;33004;-46
2022/07/28 20:44:56;;;;;;;4.80;1.90;;;;;;;;;;110347;1257;34697;-42
2022/07/28 20:47:32;;;;;;;5.40;2.20;;;;;;;;;;110300;1251;34802;-38
2022/07/28 20:50:06;;;;;;;4.80;2.20;;;;;;;;;;110348;1250;34658;-39
2022/07/28 20:52:40;;;;;;;4.60;1.70;;;;;;;;;;110352;1256;34944;-39
2022/07/28 20:55:13;;;;;;;5.30;1.90;;;;;;;;;;110325;1257;34766;-40
2022/07/28 20:57:47;;;;;;;4.30;2.30;;;;;;;;;;110310;1257;34588;-41
2022/07/28 21:00:21;;;;;;;4.70;1.90;;;;;;;;;;110280;1251;34926;-36
2022/07/28 21:02:55;;;;;;;5.10;1.70;;;;;;;;;;110347;1250;33115;-36
2022/07/28 21:05:31;;;;;;;7.00;2.00;;;;;;;;;;110292;1257;34321;-36
2022/07/28 21:08:06;;;;;;;4.00;1.90;;;;;;;;;;110145;1251;33041;-36
2022/07/28 21:10:38;;;;;;;3.80;2.00;;;;;;;;;;110085;1257;34051;-36
2022/07/28 21:13:11;;;;;;;5.40;1.90;;;;;;;;;;110124;1251;34493;-36
2022/07/28 21:15:44;;;;;;;4.70;1.90;;;;;;;;;;110121;1254;33961;-36
2022/07/28 21:18:19;;;;;;;4.10;1.90;;;;;;;;;;110121;1251;35961;-36
2022/07/28 21:20:52;;;;;;;5.00;2.00;;;;;;;;;;110123;1257;35682;-36
2022/07/28 21:23:24;;;;;;;8.40;2.40;;;;;;;;;;110161;1257;34743;-35
2022/07/28 21:25:56;;;;;;;7.30;2.10;;;;;;;;;;110295;1257;34664;-35
2022/07/28 21:31:22;;;;;;;8.60;2.70;;;;;;;;;;110321;1256;33138;-34
2022/07/28 21:33:55;;;;;;;8.00;2.70;;;;;;;;;;110274;1256;35008;-34
2022/07/28 21:36:27;;;;;;;6.90;2.90;;;;;;;;;;110295;1257;33973;-36
2022/07/28 21:39:02;;;;;;;6.50;2.80;;;;;;;;;;110320;1250;34560;-38
2022/07/28 21:41:35;;;;;;;8.80;2.80;;;;;;;;;;110287;1256;34866;-38
2022/07/28 21:44:07;;;;;;;8.30;2.90;;;;;;;;;;110336;1251;34993;-37
2022/07/28 21:46:41;;;;;;;8.60;2.90;;;;;;;;;;110343;1256;33928;-38
2022/07/28 21:49:13;;;;;;;6.60;2.90;;;;;;;;;;110322;1257;34924;-37
2022/07/28 21:51:48;;;;;;;6.80;3.00;;;;;;;;;;110342;1251;34781;-36
2022/07/28 21:54:21;;;;;;;7.20;2.70;;;;;;;;;;110286;1256;33897;-36
2022/07/28 21:56:53;;;;;;;9.10;2.70;;;;;;;;;;110304;1257;33348;-36
2022/07/28 21:59:27;;;;;;;6.50;2.60;;;;;;;;;;110269;1256;34783;-36
2022/07/28 22:02:01;;;;;;;6.40;2.70;;;;;;;;;;110306;1256;33117;-34
2022/07/28 22:04:33;;;;;;;7.10;2.80;;;;;;;;;;110324;1256;34846;-34
2022/07/28 22:07:09;;;;;;;6.40;2.50;;;;;;;;;;110302;1257;34670;-34
2022/07/28 22:09:42;;;;;;;6.00;2.50;;;;;;;;;;110315;1256;34541;-36
2022/07/28 22:12:15;;;;;;;5.80;2.60;;;;;;;;;;110307;1256;33464;-36
2022/07/28 22:14:46;;;;;;;;;;;;;;;;;;110314;1257;34609;-34
2022/07/28 22:17:18;;;;;;;5.60;2.50;;;;;;;;;;110304;1251;34467;-36
2022/07/28 22:19:50;;;;;;;6.30;2.90;;;;;;;;;;110308;1252;34949;-36
2022/07/28 22:22:23;;;;;;;6.00;3.00;;;;;;;;;;110311;1251;34670;-36
2022/07/28 22:24:58;;;;;;;6.20;2.60;;;;;;;;;;110283;1256;34882;-36
2022/07/28 22:27:31;;;;;;;8.20;3.10;;;;;;;;;;110297;1251;34754;-36
2022/07/28 22:30:04;;;;;;;8.70;3.20;;;;;;;;;;110348;1251;31591;-39
2022/07/28 22:32:36;;;;;;;6.10;3.00;;;;;;;;;;110344;1250;34709;-38
2022/07/28 22:35:10;;;;;;;6.90;3.10;;;;;;;;;;110302;1257;33962;-35
2022/07/28 22:37:43;;;;;;;6.90;3.10;;;;;;;;;;110339;1257;33124;-36
2022/07/28 22:40:16;;;;;;;6.30;2.90;;;;;;;;;;110337;1257;33182;-36
2022/07/28 22:42:49;;;;;;;5.70;2.70;;;;;;;;;;110319;1257;33468;-35
2022/07/28 22:45:21;;;;;;;7.70;3.30;;;;;;;;;;110317;1257;34529;-34
2022/07/28 22:47:55;;;;;;;7.50;3.20;;;;;;;;;;110296;1257;34540;-36
2022/07/28 22:50:27;;;;;;;;;;;;;;;;;;110309;1257;33095;-36
2022/07/28 22:53:02;;;;;;;7.60;3.10;;;;;;;;;;110333;1257;34488;-34
2022/07/28 22:55:34;;;;;;;7.70;3.50;;;;;;;;;;110331;1251;35166;-34
2022/07/28 22:58:08;;;;;;;7.40;3.30;;;;;;;;;;110317;1251;34661;-35
2022/07/28 23:00:40;;;;;;;7.20;3.20;;;;;;;;;;110341;1250;33805;-36
2022/07/28 23:03:13;;;;;;;6.80;3.10;;;;;;;;;;110309;1257;34181;-35
2022/07/28 23:05:45;;;;;;;5.50;3.10;;;;;;;;;;110304;1256;34779;-36
2022/07/28 23:08:18;;;;;;;7.90;3.20;;;;;;;;;;110299;1251;34757;-36
2022/07/28 23:10:52;;;;;;;6.50;3.10;;;;;;;;;;110295;1251;33111;-36
2022/07/28 23:13:24;;;;;;;5.80;3.40;;;;;;;;;;110310;1256;33135;-34
2022/07/28 23:15:56;;;;;;;5.50;3.20;;;;;;;;;;110313;1257;35036;-38
2022/07/28 23:18:29;;;;;;;6.50;2.90;;;;;;;;;;110291;1256;33400;-37
2022/07/28 23:21:01;;;;;;;6.30;3.40;;;;;;;;;;110311;1251;33012;-37
2022/07/28 23:23:36;;;;;;;6.60;3.00;;;;;;;;;;110309;1250;33319;-37
2022/07/28 23:26:11;;;;;;;5.70;3.00;;;;;;;;;;110317;1251;35127;-37
2022/07/28 23:28:43;;;;;;;4.90;2.80;;;;;;;;;;110289;1256;34844;-36
2022/07/28 23:31:17;;;;;;;5.00;3.10;;;;;;;;;;110311;1250;34593;-36
2022/07/28 23:33:52;;;;;;;5.40;3.10;;;;;;;;;;110305;1257;34857;-36